sensor_id;sensor_type;location;lat;lon;timestamp;temperature;humidity
17489;DHT22;8861;52.644;4.734;2022-12-29T00:01:28;11.20;99.90
17489;DHT22;8861;52.644;4.734;2022-12-29T00:03:55;11.30;99.90
17489;DHT22;8861;52.644;4.734;2022-12-29T00:06:22;11.30;99.90
17489;DHT22;8861;52.644;4.734;2022-12-29T00:08:49;11.30;99.90
17489;DHT22;8861;52.644;4.734;2022-12-29T00:11:20;11.40;99.90
17489;DHT22;8861;52.644;4.734;2022-12-29T00:13:47;11.40;99.90
17489;DHT22;8861;52.644;4.734;2022-12-29T00:16:33;11.40;99.90
17489;DHT22;8861;52.644;4.734;2022-12-29T00:19:00;11.30;99.90
17489;DHT22;8861;52.644;4.734;2022-12-29T00:21:27;11.30;99.90
17489;DHT22;8861;52.644;4.734;2022-12-29T00:24:14;11.20;99.90
17489;DHT22;8861;52.644;4.734;2022-12-29T00:27:10;11.20;99.90
17489;DHT22;8861;52.644;4.734;2022-12-29T00:29:55;11.00;99.90
17489;DHT22;8861;52.644;4.734;2022-12-29T00:32:39;11.00;99.90
17489;DHT22;8861;52.644;4.734;2022-12-29T00:35:26;11.00;99.90
17489;DHT22;8861;52.644;4.734;2022-12-29T00:37:55;10.90;99.90
17489;DHT22;8861;52.644;4.734;2022-12-29T00:40:41;10.90;99.90
17489;DHT22;8861;52.644;4.734;2022-12-29T00:43:27;10.80;99.90
17489;DHT22;8861;52.644;4.734;2022-12-29T00:46:17;10.70;99.90
17489;DHT22;8861;52.644;4.734;2022-12-29T00:48:44;10.70;99.90
17489;DHT22;8861;52.644;4.734;2022-12-29T00:51:28;10.60;99.90
17489;DHT22;8861;52.644;4.734;2022-12-29T00:53:55;10.60;99.90
17489;DHT22;8861;52.644;4.734;2022-12-29T00:56:22;10.60;99.90
17489;DHT22;8861;52.644;4.734;2022-12-29T00:58:50;10.60;99.90
17489;DHT22;8861;52.644;4.734;2022-12-29T01:01:17;10.50;99.90
17489;DHT22;8861;52.644;4.734;2022-12-29T01:03:44;10.50;99.90
17489;DHT22;8861;52.644;4.734;2022-12-29T01:06:12;10.60;99.90
17489;DHT22;8861;52.644;4.734;2022-12-29T01:08:39;10.50;99.90
17489;DHT22;8861;52.644;4.734;2022-12-29T01:11:08;10.50;99.90
17489;DHT22;8861;52.644;4.734;2022-12-29T01:13:34;10.60;99.90
17489;DHT22;8861;52.644;4.734;2022-12-29T01:16:05;10.50;99.90
17489;DHT22;8861;52.644;4.734;2022-12-29T01:18:32;10.50;99.90
17489;DHT22;8861;52.644;4.734;2022-12-29T01:20:59;10.50;99.90
17489;DHT22;8861;52.644;4.734;2022-12-29T01:23:27;10.40;99.90
17489;DHT22;8861;52.644;4.734;2022-12-29T01:25:54;10.40;99.90
17489;DHT22;8861;52.644;4.734;2022-12-29T01:28:21;10.30;99.90
17489;DHT22;8861;52.644;4.734;2022-12-29T01:30:48;10.30;99.90
17489;DHT22;8861;52.644;4.734;2022-12-29T01:33:19;10.20;99.90
17489;DHT22;8861;52.644;4.734;2022-12-29T01:35:46;10.20;99.90
17489;DHT22;8861;52.644;4.734;2022-12-29T01:38:13;10.10;99.90
17489;DHT22;8861;52.644;4.734;2022-12-29T01:40:44;10.10;99.90
17489;DHT22;8861;52.644;4.734;2022-12-29T01:43:13;10.10;99.90
17489;DHT22;8861;52.644;4.734;2022-12-29T01:45:44;10.10;99.90
17489;DHT22;8861;52.644;4.734;2022-12-29T01:48:13;10.10;99.90
17489;DHT22;8861;52.644;4.734;2022-12-29T01:50:45;10.10;99.90
17489;DHT22;8861;52.644;4.734;2022-12-29T01:53:17;10.10;99.90
17489;DHT22;8861;52.644;4.734;2022-12-29T01:55:48;10.00;99.90
17489;DHT22;8861;52.644;4.734;2022-12-29T01:58:18;10.00;99.90
17489;DHT22;8861;52.644;4.734;2022-12-29T02:00:46;10.00;99.90
17489;DHT22;8861;52.644;4.734;2022-12-29T02:03:14;10.00;99.90
17489;DHT22;8861;52.644;4.734;2022-12-29T02:05:49;9.90;99.90
17489;DHT22;8861;52.644;4.734;2022-12-29T02:08:18;9.90;99.90
17489;DHT22;8861;52.644;4.734;2022-12-29T02:10:46;9.90;99.90
17489;DHT22;8861;52.644;4.734;2022-12-29T02:13:15;9.90;99.90
17489;DHT22;8861;52.644;4.734;2022-12-29T02:15:52;9.80;99.90
17489;DHT22;8861;52.644;4.734;2022-12-29T02:18:32;9.70;99.90
17489;DHT22;8861;52.644;4.734;2022-12-29T02:24:26;9.60;99.90
17489;DHT22;8861;52.644;4.734;2022-12-29T02:27:14;9.60;99.90
17489;DHT22;8861;52.644;4.734;2022-12-29T02:30:08;9.60;99.90
17489;DHT22;8861;52.644;4.734;2022-12-29T02:32:44;9.50;99.90
17489;DHT22;8861;52.644;4.734;2022-12-29T02:35:18;9.50;99.90
17489;DHT22;8861;52.644;4.734;2022-12-29T02:37:54;9.50;99.90
17489;DHT22;8861;52.644;4.734;2022-12-29T02:40:25;9.50;99.90
17489;DHT22;8861;52.644;4.734;2022-12-29T02:43:01;9.50;99.90
17489;DHT22;8861;52.644;4.734;2022-12-29T02:45:34;9.50;99.90
17489;DHT22;8861;52.644;4.734;2022-12-29T02:48:09;9.50;99.90
17489;DHT22;8861;52.644;4.734;2022-12-29T02:50:43;9.50;99.90
17489;DHT22;8861;52.644;4.734;2022-12-29T02:53:16;9.50;99.90
17489;DHT22;8861;52.644;4.734;2022-12-29T02:56:04;9.40;99.90
17489;DHT22;8861;52.644;4.734;2022-12-29T02:58:33;9.30;99.90
17489;DHT22;8861;52.644;4.734;2022-12-29T03:01:16;9.30;99.90
17489;DHT22;8861;52.644;4.734;2022-12-29T03:06:47;9.20;99.90
17489;DHT22;8861;52.644;4.734;2022-12-29T03:09:23;9.10;99.90
17489;DHT22;8861;52.644;4.734;2022-12-29T03:11:59;9.10;99.90
17489;DHT22;8861;52.644;4.734;2022-12-29T03:14:44;9.10;99.90
17489;DHT22;8861;52.644;4.734;2022-12-29T03:17:37;9.00;99.90
17489;DHT22;8861;52.644;4.734;2022-12-29T03:20:08;9.00;99.90
17489;DHT22;8861;52.644;4.734;2022-12-29T03:22:39;9.00;99.90
17489;DHT22;8861;52.644;4.734;2022-12-29T03:25:12;9.00;99.90
17489;DHT22;8861;52.644;4.734;2022-12-29T03:27:42;9.00;99.90
17489;DHT22;8861;52.644;4.734;2022-12-29T03:30:11;9.00;99.90
17489;DHT22;8861;52.644;4.734;2022-12-29T03:32:42;9.00;99.90
17489;DHT22;8861;52.644;4.734;2022-12-29T03:35:15;9.00;99.90
17489;DHT22;8861;52.644;4.734;2022-12-29T03:37:50;9.00;99.90
17489;DHT22;8861;52.644;4.734;2022-12-29T03:40:21;9.00;99.90
17489;DHT22;8861;52.644;4.734;2022-12-29T03:42:48;9.00;99.90
17489;DHT22;8861;52.644;4.734;2022-12-29T03:45:15;9.00;99.90
17489;DHT22;8861;52.644;4.734;2022-12-29T03:47:42;9.10;99.90
17489;DHT22;8861;52.644;4.734;2022-12-29T03:50:13;9.10;99.90
17489;DHT22;8861;52.644;4.734;2022-12-29T03:52:40;9.10;99.90
17489;DHT22;8861;52.644;4.734;2022-12-29T03:55:08;9.10;99.90
17489;DHT22;8861;52.644;4.734;2022-12-29T03:57:35;9.10;99.90
17489;DHT22;8861;52.644;4.734;2022-12-29T04:00:04;9.10;99.90
17489;DHT22;8861;52.644;4.734;2022-12-29T04:02:32;9.20;99.90
17489;DHT22;8861;52.644;4.734;2022-12-29T04:04:59;9.20;99.90
17489;DHT22;8861;52.644;4.734;2022-12-29T04:07:27;9.30;99.90
17489;DHT22;8861;52.644;4.734;2022-12-29T04:09:54;9.30;99.90
17489;DHT22;8861;52.644;4.734;2022-12-29T04:12:21;9.30;99.90
17489;DHT22;8861;52.644;4.734;2022-12-29T04:14:48;9.30;99.90
17489;DHT22;8861;52.644;4.734;2022-12-29T04:17:15;9.30;99.90
17489;DHT22;8861;52.644;4.734;2022-12-29T04:19:42;9.30;99.90
17489;DHT22;8861;52.644;4.734;2022-12-29T04:22:09;9.20;99.90
17489;DHT22;8861;52.644;4.734;2022-12-29T04:24:38;9.30;99.90
17489;DHT22;8861;52.644;4.734;2022-12-29T04:27:05;9.30;99.90
17489;DHT22;8861;52.644;4.734;2022-12-29T04:29:32;9.20;99.90
17489;DHT22;8861;52.644;4.734;2022-12-29T04:31:59;9.30;99.90
17489;DHT22;8861;52.644;4.734;2022-12-29T04:34:26;9.30;99.90
17489;DHT22;8861;52.644;4.734;2022-12-29T04:36:53;9.30;99.90
17489;DHT22;8861;52.644;4.734;2022-12-29T04:39:20;9.30;99.90
17489;DHT22;8861;52.644;4.734;2022-12-29T04:41:48;9.40;99.90
17489;DHT22;8861;52.644;4.734;2022-12-29T04:44:15;9.30;99.90
17489;DHT22;8861;52.644;4.734;2022-12-29T04:46:42;9.30;99.90
17489;DHT22;8861;52.644;4.734;2022-12-29T04:49:09;9.30;99.90
17489;DHT22;8861;52.644;4.734;2022-12-29T04:51:36;9.30;99.90
17489;DHT22;8861;52.644;4.734;2022-12-29T04:54:04;9.30;99.90
17489;DHT22;8861;52.644;4.734;2022-12-29T04:56:31;9.20;99.90
17489;DHT22;8861;52.644;4.734;2022-12-29T04:58:59;9.20;99.90
17489;DHT22;8861;52.644;4.734;2022-12-29T05:01:26;9.20;99.90
17489;DHT22;8861;52.644;4.734;2022-12-29T05:03:53;9.20;99.90
17489;DHT22;8861;52.644;4.734;2022-12-29T05:06:20;9.20;99.90
17489;DHT22;8861;52.644;4.734;2022-12-29T05:08:47;9.20;99.90
17489;DHT22;8861;52.644;4.734;2022-12-29T05:11:14;9.20;99.90
17489;DHT22;8861;52.644;4.734;2022-12-29T05:13:41;9.30;99.90
17489;DHT22;8861;52.644;4.734;2022-12-29T05:16:09;9.30;99.90
17489;DHT22;8861;52.644;4.734;2022-12-29T05:18:36;9.30;99.90
17489;DHT22;8861;52.644;4.734;2022-12-29T05:21:03;9.40;99.90
17489;DHT22;8861;52.644;4.734;2022-12-29T05:23:30;9.50;99.90
17489;DHT22;8861;52.644;4.734;2022-12-29T05:25:57;9.40;99.90
17489;DHT22;8861;52.644;4.734;2022-12-29T05:28:24;9.40;99.90
17489;DHT22;8861;52.644;4.734;2022-12-29T05:30:51;9.30;99.90
17489;DHT22;8861;52.644;4.734;2022-12-29T05:33:20;9.30;99.90
17489;DHT22;8861;52.644;4.734;2022-12-29T05:35:47;9.30;99.90
17489;DHT22;8861;52.644;4.734;2022-12-29T05:38:14;9.20;99.90
17489;DHT22;8861;52.644;4.734;2022-12-29T05:40:41;9.20;99.90
17489;DHT22;8861;52.644;4.734;2022-12-29T05:43:09;9.20;99.90
17489;DHT22;8861;52.644;4.734;2022-12-29T05:45:36;9.20;99.90
17489;DHT22;8861;52.644;4.734;2022-12-29T05:48:04;9.10;99.90
17489;DHT22;8861;52.644;4.734;2022-12-29T05:50:32;9.20;99.90
17489;DHT22;8861;52.644;4.734;2022-12-29T05:52:59;9.20;99.90
17489;DHT22;8861;52.644;4.734;2022-12-29T05:55:26;9.20;99.90
17489;DHT22;8861;52.644;4.734;2022-12-29T05:57:53;9.20;99.90
17489;DHT22;8861;52.644;4.734;2022-12-29T06:00:20;9.30;99.90
17489;DHT22;8861;52.644;4.734;2022-12-29T06:02:47;9.30;99.90
17489;DHT22;8861;52.644;4.734;2022-12-29T06:05:14;9.30;99.90
17489;DHT22;8861;52.644;4.734;2022-12-29T06:07:43;9.30;99.90
17489;DHT22;8861;52.644;4.734;2022-12-29T06:10:10;9.30;99.90
17489;DHT22;8861;52.644;4.734;2022-12-29T06:12:37;9.40;99.90
17489;DHT22;8861;52.644;4.734;2022-12-29T06:15:05;9.30;99.90
17489;DHT22;8861;52.644;4.734;2022-12-29T06:17:32;9.40;99.90
17489;DHT22;8861;52.644;4.734;2022-12-29T06:19:59;9.40;99.90
17489;DHT22;8861;52.644;4.734;2022-12-29T06:22:26;9.50;99.90
17489;DHT22;8861;52.644;4.734;2022-12-29T06:24:55;9.40;99.90
17489;DHT22;8861;52.644;4.734;2022-12-29T06:27:22;9.40;99.90
17489;DHT22;8861;52.644;4.734;2022-12-29T06:29:49;9.50;99.90
17489;DHT22;8861;52.644;4.734;2022-12-29T06:32:16;9.50;99.90
17489;DHT22;8861;52.644;4.734;2022-12-29T06:34:43;9.50;99.90
17489;DHT22;8861;52.644;4.734;2022-12-29T06:37:11;9.60;99.90
17489;DHT22;8861;52.644;4.734;2022-12-29T06:39:38;9.60;99.90
17489;DHT22;8861;52.644;4.734;2022-12-29T06:42:08;9.60;99.90
17489;DHT22;8861;52.644;4.734;2022-12-29T06:44:35;9.60;99.90
17489;DHT22;8861;52.644;4.734;2022-12-29T06:47:02;9.60;99.90
17489;DHT22;8861;52.644;4.734;2022-12-29T06:49:29;9.60;99.90
17489;DHT22;8861;52.644;4.734;2022-12-29T06:51:56;9.60;99.90
17489;DHT22;8861;52.644;4.734;2022-12-29T06:54:26;9.50;99.90
17489;DHT22;8861;52.644;4.734;2022-12-29T06:56:53;9.50;99.90
17489;DHT22;8861;52.644;4.734;2022-12-29T06:59:21;9.50;99.90
17489;DHT22;8861;52.644;4.734;2022-12-29T07:01:49;9.40;99.90
17489;DHT22;8861;52.644;4.734;2022-12-29T07:04:16;9.30;99.90
17489;DHT22;8861;52.644;4.734;2022-12-29T07:06:43;9.30;99.90
17489;DHT22;8861;52.644;4.734;2022-12-29T07:09:10;9.30;99.90
17489;DHT22;8861;52.644;4.734;2022-12-29T07:11:37;9.30;99.90
17489;DHT22;8861;52.644;4.734;2022-12-29T07:14:04;9.40;99.90
17489;DHT22;8861;52.644;4.734;2022-12-29T07:16:33;9.40;99.90
17489;DHT22;8861;52.644;4.734;2022-12-29T07:19:00;9.40;99.90
17489;DHT22;8861;52.644;4.734;2022-12-29T07:21:27;9.40;99.90
17489;DHT22;8861;52.644;4.734;2022-12-29T07:23:54;9.50;99.90
17489;DHT22;8861;52.644;4.734;2022-12-29T07:26:21;9.50;99.90
17489;DHT22;8861;52.644;4.734;2022-12-29T07:28:48;9.50;99.90
17489;DHT22;8861;52.644;4.734;2022-12-29T07:31:17;9.50;99.90
17489;DHT22;8861;52.644;4.734;2022-12-29T07:33:46;9.60;99.90
17489;DHT22;8861;52.644;4.734;2022-12-29T07:36:15;9.60;99.90
17489;DHT22;8861;52.644;4.734;2022-12-29T07:38:42;9.60;99.90
17489;DHT22;8861;52.644;4.734;2022-12-29T07:41:09;9.60;99.90
17489;DHT22;8861;52.644;4.734;2022-12-29T07:43:36;9.70;99.90
17489;DHT22;8861;52.644;4.734;2022-12-29T07:46:03;9.70;99.90
17489;DHT22;8861;52.644;4.734;2022-12-29T07:48:30;9.70;99.90
17489;DHT22;8861;52.644;4.734;2022-12-29T07:51:00;9.80;99.90
17489;DHT22;8861;52.644;4.734;2022-12-29T07:53:27;9.80;99.90
17489;DHT22;8861;52.644;4.734;2022-12-29T07:55:54;9.80;99.90
17489;DHT22;8861;52.644;4.734;2022-12-29T07:58:21;9.80;99.90
17489;DHT22;8861;52.644;4.734;2022-12-29T08:00:53;9.90;99.90
17489;DHT22;8861;52.644;4.734;2022-12-29T08:03:20;9.80;99.90
17489;DHT22;8861;52.644;4.734;2022-12-29T08:05:47;9.80;99.90
17489;DHT22;8861;52.644;4.734;2022-12-29T08:08:15;9.80;99.90
17489;DHT22;8861;52.644;4.734;2022-12-29T08:10:42;9.80;99.90
17489;DHT22;8861;52.644;4.734;2022-12-29T08:13:09;9.80;99.90
17489;DHT22;8861;52.644;4.734;2022-12-29T08:15:38;9.80;99.90
17489;DHT22;8861;52.644;4.734;2022-12-29T08:18:05;9.80;99.90
17489;DHT22;8861;52.644;4.734;2022-12-29T08:20:32;9.80;99.90
17489;DHT22;8861;52.644;4.734;2022-12-29T08:22:59;9.70;99.90
17489;DHT22;8861;52.644;4.734;2022-12-29T08:25:27;9.70;99.90
17489;DHT22;8861;52.644;4.734;2022-12-29T08:27:54;9.60;99.90
17489;DHT22;8861;52.644;4.734;2022-12-29T08:30:21;9.60;99.90
17489;DHT22;8861;52.644;4.734;2022-12-29T08:32:48;9.50;99.90
17489;DHT22;8861;52.644;4.734;2022-12-29T08:35:15;9.50;99.90
17489;DHT22;8861;52.644;4.734;2022-12-29T08:37:42;9.40;99.90
17489;DHT22;8861;52.644;4.734;2022-12-29T08:40:09;9.40;99.90
17489;DHT22;8861;52.644;4.734;2022-12-29T08:42:38;9.40;99.90
17489;DHT22;8861;52.644;4.734;2022-12-29T08:45:06;9.40;99.90
17489;DHT22;8861;52.644;4.734;2022-12-29T08:47:34;9.30;99.90
17489;DHT22;8861;52.644;4.734;2022-12-29T08:50:01;9.30;99.90
17489;DHT22;8861;52.644;4.734;2022-12-29T08:52:28;9.20;99.90
17489;DHT22;8861;52.644;4.734;2022-12-29T08:54:55;9.20;99.90
17489;DHT22;8861;52.644;4.734;2022-12-29T08:57:22;9.10;99.90
17489;DHT22;8861;52.644;4.734;2022-12-29T08:59:50;9.10;99.90
17489;DHT22;8861;52.644;4.734;2022-12-29T09:02:17;9.10;99.90
17489;DHT22;8861;52.644;4.734;2022-12-29T09:04:44;9.00;99.90
17489;DHT22;8861;52.644;4.734;2022-12-29T09:07:11;9.00;99.90
17489;DHT22;8861;52.644;4.734;2022-12-29T09:09:38;9.00;99.90
17489;DHT22;8861;52.644;4.734;2022-12-29T09:12:05;9.10;99.90
17489;DHT22;8861;52.644;4.734;2022-12-29T09:14:32;9.00;99.90
17489;DHT22;8861;52.644;4.734;2022-12-29T09:17:01;9.10;99.90
17489;DHT22;8861;52.644;4.734;2022-12-29T09:19:45;9.10;99.90
17489;DHT22;8861;52.644;4.734;2022-12-29T09:22:12;9.10;99.90
17489;DHT22;8861;52.644;4.734;2022-12-29T09:24:39;9.10;99.90
17489;DHT22;8861;52.644;4.734;2022-12-29T09:27:06;9.10;99.90
17489;DHT22;8861;52.644;4.734;2022-12-29T09:29:35;9.20;99.90
17489;DHT22;8861;52.644;4.734;2022-12-29T09:32:04;9.20;99.90
17489;DHT22;8861;52.644;4.734;2022-12-29T09:34:31;9.20;99.90
17489;DHT22;8861;52.644;4.734;2022-12-29T09:36:57;9.20;99.90
17489;DHT22;8861;52.644;4.734;2022-12-29T09:39:25;9.20;99.90
17489;DHT22;8861;52.644;4.734;2022-12-29T09:41:59;9.30;99.90
17489;DHT22;8861;52.644;4.734;2022-12-29T09:44:35;9.30;99.90
17489;DHT22;8861;52.644;4.734;2022-12-29T09:47:12;9.30;99.90
17489;DHT22;8861;52.644;4.734;2022-12-29T09:49:43;9.30;99.90
17489;DHT22;8861;52.644;4.734;2022-12-29T09:52:14;9.20;99.90
17489;DHT22;8861;52.644;4.734;2022-12-29T09:54:48;9.20;99.90
17489;DHT22;8861;52.644;4.734;2022-12-29T09:57:19;9.00;99.90
17489;DHT22;8861;52.644;4.734;2022-12-29T09:59:50;9.00;99.90
17489;DHT22;8861;52.644;4.734;2022-12-29T10:02:31;9.00;99.90
17489;DHT22;8861;52.644;4.734;2022-12-29T10:04:58;9.00;99.90
17489;DHT22;8861;52.644;4.734;2022-12-29T10:07:33;9.00;99.90
17489;DHT22;8861;52.644;4.734;2022-12-29T10:10:29;9.00;99.90
17489;DHT22;8861;52.644;4.734;2022-12-29T10:13:06;9.00;99.90
17489;DHT22;8861;52.644;4.734;2022-12-29T10:15:44;9.00;99.90
17489;DHT22;8861;52.644;4.734;2022-12-29T10:18:32;9.00;99.90
17489;DHT22;8861;52.644;4.734;2022-12-29T10:21:07;9.10;99.90
17489;DHT22;8861;52.644;4.734;2022-12-29T10:23:40;9.20;99.90
17489;DHT22;8861;52.644;4.734;2022-12-29T10:26:14;9.30;99.90
17489;DHT22;8861;52.644;4.734;2022-12-29T10:28:43;9.40;99.90
17489;DHT22;8861;52.644;4.734;2022-12-29T10:31:16;9.40;99.90
17489;DHT22;8861;52.644;4.734;2022-12-29T10:33:49;9.50;99.90
17489;DHT22;8861;52.644;4.734;2022-12-29T10:36:27;9.50;99.90
17489;DHT22;8861;52.644;4.734;2022-12-29T10:39:04;9.70;99.90
17489;DHT22;8861;52.644;4.734;2022-12-29T10:41:36;9.80;99.90
17489;DHT22;8861;52.644;4.734;2022-12-29T10:44:04;9.90;99.90
17489;DHT22;8861;52.644;4.734;2022-12-29T10:46:34;10.00;99.90
17489;DHT22;8861;52.644;4.734;2022-12-29T10:49:04;10.10;99.90
17489;DHT22;8861;52.644;4.734;2022-12-29T10:51:35;10.10;99.90
17489;DHT22;8861;52.644;4.734;2022-12-29T10:54:06;10.20;99.90
17489;DHT22;8861;52.644;4.734;2022-12-29T10:56:40;10.20;99.90
17489;DHT22;8861;52.644;4.734;2022-12-29T10:59:16;10.30;99.90
17489;DHT22;8861;52.644;4.734;2022-12-29T11:01:53;10.30;99.90
17489;DHT22;8861;52.644;4.734;2022-12-29T11:04:35;10.30;99.90
17489;DHT22;8861;52.644;4.734;2022-12-29T11:07:07;10.10;99.90
17489;DHT22;8861;52.644;4.734;2022-12-29T11:09:37;10.10;99.90
17489;DHT22;8861;52.644;4.734;2022-12-29T11:12:19;10.00;99.90
17489;DHT22;8861;52.644;4.734;2022-12-29T11:14:46;9.90;99.90
17489;DHT22;8861;52.644;4.734;2022-12-29T11:17:15;9.90;99.90
17489;DHT22;8861;52.644;4.734;2022-12-29T11:19:44;9.90;99.90
17489;DHT22;8861;52.644;4.734;2022-12-29T11:22:20;9.90;99.90
17489;DHT22;8861;52.644;4.734;2022-12-29T11:24:50;9.90;99.90
17489;DHT22;8861;52.644;4.734;2022-12-29T11:27:20;9.90;99.90
17489;DHT22;8861;52.644;4.734;2022-12-29T11:29:49;9.90;99.90
17489;DHT22;8861;52.644;4.734;2022-12-29T11:32:19;9.90;99.90
17489;DHT22;8861;52.644;4.734;2022-12-29T11:34:47;9.80;99.90
17489;DHT22;8861;52.644;4.734;2022-12-29T11:37:17;9.90;99.90
17489;DHT22;8861;52.644;4.734;2022-12-29T11:39:50;9.90;99.90
17489;DHT22;8861;52.644;4.734;2022-12-29T11:42:21;9.90;99.90
17489;DHT22;8861;52.644;4.734;2022-12-29T11:44:50;9.90;99.90
17489;DHT22;8861;52.644;4.734;2022-12-29T11:47:26;9.90;99.90
17489;DHT22;8861;52.644;4.734;2022-12-29T11:49:57;9.90;99.90
17489;DHT22;8861;52.644;4.734;2022-12-29T11:52:27;9.80;99.90
17489;DHT22;8861;52.644;4.734;2022-12-29T11:54:56;9.80;99.90
17489;DHT22;8861;52.644;4.734;2022-12-29T11:57:24;9.80;99.90
17489;DHT22;8861;52.644;4.734;2022-12-29T11:59:52;9.90;99.90
17489;DHT22;8861;52.644;4.734;2022-12-29T12:02:35;9.90;99.90
17489;DHT22;8861;52.644;4.734;2022-12-29T12:05:12;10.00;99.90
17489;DHT22;8861;52.644;4.734;2022-12-29T12:07:41;10.00;99.90
17489;DHT22;8861;52.644;4.734;2022-12-29T12:10:27;10.00;99.90
17489;DHT22;8861;52.644;4.734;2022-12-29T12:13:14;10.00;99.90
17489;DHT22;8861;52.644;4.734;2022-12-29T12:15:47;10.00;99.90
17489;DHT22;8861;52.644;4.734;2022-12-29T12:18:19;10.00;99.90
17489;DHT22;8861;52.644;4.734;2022-12-29T12:20:53;9.90;99.90
17489;DHT22;8861;52.644;4.734;2022-12-29T12:23:32;9.90;99.90
17489;DHT22;8861;52.644;4.734;2022-12-29T12:26:09;9.80;99.90
17489;DHT22;8861;52.644;4.734;2022-12-29T12:28:42;9.80;99.90
17489;DHT22;8861;52.644;4.734;2022-12-29T12:31:18;9.70;99.90
17489;DHT22;8861;52.644;4.734;2022-12-29T12:33:52;9.70;99.90
17489;DHT22;8861;52.644;4.734;2022-12-29T12:36:36;9.70;99.90
17489;DHT22;8861;52.644;4.734;2022-12-29T12:39:11;9.70;99.90
17489;DHT22;8861;52.644;4.734;2022-12-29T12:41:46;9.60;99.90
17489;DHT22;8861;52.644;4.734;2022-12-29T12:44:22;9.60;99.90
17489;DHT22;8861;52.644;4.734;2022-12-29T12:47:41;9.50;99.90
17489;DHT22;8861;52.644;4.734;2022-12-29T12:50:22;9.50;99.90
17489;DHT22;8861;52.644;4.734;2022-12-29T12:56:12;9.40;99.90
17489;DHT22;8861;52.644;4.734;2022-12-29T12:58:48;9.40;99.90
17489;DHT22;8861;52.644;4.734;2022-12-29T13:01:27;9.40;99.90
17489;DHT22;8861;52.644;4.734;2022-12-29T13:04:12;9.50;99.90
17489;DHT22;8861;52.644;4.734;2022-12-29T13:06:47;9.60;99.90
17489;DHT22;8861;52.644;4.734;2022-12-29T13:12:15;9.80;99.90
17489;DHT22;8861;52.644;4.734;2022-12-29T13:14:54;9.90;99.90
17489;DHT22;8861;52.644;4.734;2022-12-29T13:17:27;10.00;99.90
17489;DHT22;8861;52.644;4.734;2022-12-29T13:20:02;10.00;99.90
17489;DHT22;8861;52.644;4.734;2022-12-29T13:22:38;10.10;99.90
17489;DHT22;8861;52.644;4.734;2022-12-29T13:25:21;10.00;99.90
17489;DHT22;8861;52.644;4.734;2022-12-29T13:27:56;10.00;99.90
17489;DHT22;8861;52.644;4.734;2022-12-29T13:30:31;9.90;99.90
17489;DHT22;8861;52.644;4.734;2022-12-29T13:33:06;9.80;99.90
17489;DHT22;8861;52.644;4.734;2022-12-29T13:35:59;9.80;99.90
17489;DHT22;8861;52.644;4.734;2022-12-29T13:38:32;9.80;99.90
17489;DHT22;8861;52.644;4.734;2022-12-29T13:41:03;9.80;99.90
17489;DHT22;8861;52.644;4.734;2022-12-29T13:43:35;9.80;99.90
17489;DHT22;8861;52.644;4.734;2022-12-29T13:46:06;9.80;99.90
17489;DHT22;8861;52.644;4.734;2022-12-29T13:48:38;9.80;99.90
17489;DHT22;8861;52.644;4.734;2022-12-29T13:51:08;9.80;99.90
17489;DHT22;8861;52.644;4.734;2022-12-29T13:53:42;9.80;99.90
17489;DHT22;8861;52.644;4.734;2022-12-29T13:56:15;9.80;99.90
17489;DHT22;8861;52.644;4.734;2022-12-29T13:58:52;9.80;99.90
17489;DHT22;8861;52.644;4.734;2022-12-29T14:01:23;9.90;99.90
17489;DHT22;8861;52.644;4.734;2022-12-29T14:03:56;9.90;99.90
17489;DHT22;8861;52.644;4.734;2022-12-29T14:06:26;9.90;99.90
17489;DHT22;8861;52.644;4.734;2022-12-29T14:08:55;9.90;99.90
17489;DHT22;8861;52.644;4.734;2022-12-29T14:11:28;9.80;99.90
17489;DHT22;8861;52.644;4.734;2022-12-29T14:13:58;9.80;99.90
17489;DHT22;8861;52.644;4.734;2022-12-29T14:16:31;9.90;99.90
17489;DHT22;8861;52.644;4.734;2022-12-29T14:19:13;9.90;99.90
17489;DHT22;8861;52.644;4.734;2022-12-29T14:21:50;9.90;99.90
17489;DHT22;8861;52.644;4.734;2022-12-29T14:24:39;9.90;99.90
17489;DHT22;8861;52.644;4.734;2022-12-29T14:33:15;9.90;99.90
17489;DHT22;8861;52.644;4.734;2022-12-29T14:35:44;9.80;99.90
17489;DHT22;8861;52.644;4.734;2022-12-29T14:38:23;9.70;99.90
17489;DHT22;8861;52.644;4.734;2022-12-29T14:40:50;9.60;99.90
17489;DHT22;8861;52.644;4.734;2022-12-29T14:43:24;9.40;99.90
17489;DHT22;8861;52.644;4.734;2022-12-29T14:45:55;9.30;99.90
17489;DHT22;8861;52.644;4.734;2022-12-29T14:48:39;9.30;99.90
17489;DHT22;8861;52.644;4.734;2022-12-29T14:51:31;9.20;99.90
17489;DHT22;8861;52.644;4.734;2022-12-29T14:53:58;9.10;99.90
17489;DHT22;8861;52.644;4.734;2022-12-29T14:56:27;9.10;99.90
17489;DHT22;8861;52.644;4.734;2022-12-29T14:58:58;9.10;99.90
17489;DHT22;8861;52.644;4.734;2022-12-29T15:01:38;9.10;99.90
17489;DHT22;8861;52.644;4.734;2022-12-29T15:04:15;9.10;99.90
17489;DHT22;8861;52.644;4.734;2022-12-29T15:06:44;9.20;99.90
17489;DHT22;8861;52.644;4.734;2022-12-29T15:09:22;9.10;99.90
17489;DHT22;8861;52.644;4.734;2022-12-29T15:11:52;9.10;99.90
17489;DHT22;8861;52.644;4.734;2022-12-29T15:14:33;9.10;99.90
17489;DHT22;8861;52.644;4.734;2022-12-29T15:17:02;9.10;99.90
17489;DHT22;8861;52.644;4.734;2022-12-29T15:19:36;9.20;99.90
17489;DHT22;8861;52.644;4.734;2022-12-29T15:22:03;9.10;99.90
17489;DHT22;8861;52.644;4.734;2022-12-29T15:24:30;9.20;99.90
17489;DHT22;8861;52.644;4.734;2022-12-29T15:27:03;9.10;99.90
17489;DHT22;8861;52.644;4.734;2022-12-29T15:29:37;9.10;99.90
17489;DHT22;8861;52.644;4.734;2022-12-29T15:32:18;9.00;99.90
17489;DHT22;8861;52.644;4.734;2022-12-29T15:34:48;9.00;99.90
17489;DHT22;8861;52.644;4.734;2022-12-29T15:37:18;8.90;99.90
17489;DHT22;8861;52.644;4.734;2022-12-29T15:39:45;8.90;99.90
17489;DHT22;8861;52.644;4.734;2022-12-29T15:42:27;8.90;99.90
17489;DHT22;8861;52.644;4.734;2022-12-29T15:44:56;8.90;99.90
17489;DHT22;8861;52.644;4.734;2022-12-29T15:47:26;8.90;99.90
17489;DHT22;8861;52.644;4.734;2022-12-29T15:50:02;9.00;99.90
17489;DHT22;8861;52.644;4.734;2022-12-29T15:52:32;9.00;99.90
17489;DHT22;8861;52.644;4.734;2022-12-29T15:55:00;9.00;99.90
17489;DHT22;8861;52.644;4.734;2022-12-29T15:57:29;9.10;99.90
17489;DHT22;8861;52.644;4.734;2022-12-29T15:59:58;9.10;99.90
17489;DHT22;8861;52.644;4.734;2022-12-29T16:02:26;9.00;99.90
17489;DHT22;8861;52.644;4.734;2022-12-29T16:04:54;9.00;99.90
17489;DHT22;8861;52.644;4.734;2022-12-29T16:07:28;8.90;99.90
17489;DHT22;8861;52.644;4.734;2022-12-29T16:09:57;8.90;99.90
17489;DHT22;8861;52.644;4.734;2022-12-29T16:12:31;8.90;99.90
17489;DHT22;8861;52.644;4.734;2022-12-29T16:15:00;8.90;99.90
17489;DHT22;8861;52.644;4.734;2022-12-29T16:17:30;8.90;99.90
17489;DHT22;8861;52.644;4.734;2022-12-29T16:19:59;9.00;99.90
17489;DHT22;8861;52.644;4.734;2022-12-29T16:22:32;9.10;99.90
17489;DHT22;8861;52.644;4.734;2022-12-29T16:25:02;9.00;99.90
17489;DHT22;8861;52.644;4.734;2022-12-29T16:27:32;9.00;99.90
17489;DHT22;8861;52.644;4.734;2022-12-29T16:30:05;9.00;99.90
17489;DHT22;8861;52.644;4.734;2022-12-29T16:32:33;9.00;99.90
17489;DHT22;8861;52.644;4.734;2022-12-29T16:35:12;9.00;99.90
17489;DHT22;8861;52.644;4.734;2022-12-29T16:37:41;8.90;99.90
17489;DHT22;8861;52.644;4.734;2022-12-29T16:40:27;8.90;99.90
17489;DHT22;8861;52.644;4.734;2022-12-29T16:42:57;8.90;99.90
17489;DHT22;8861;52.644;4.734;2022-12-29T16:48:32;8.90;99.90